sensor_id;sensor_type;location;lat;lon;timestamp;pressure;altitude;pressure_sealevel;temperature;humidity
62864;BME280;48954;59.950;11.014;2022-08-19T00:01:56;99462.95;;;16.85;86.04
62864;BME280;48954;59.950;11.014;2022-08-19T00:04:27;99458.27;;;16.85;86.10
62864;BME280;48954;59.950;11.014;2022-08-19T00:06:54;99456.84;;;16.84;86.01
62864;BME280;48954;59.950;11.014;2022-08-19T00:09:22;99454.71;;;16.82;85.92
62864;BME280;48954;59.950;11.014;2022-08-19T00:11:49;99450.67;;;16.81;85.90
62864;BME280;48954;59.950;11.014;2022-08-19T00:14:17;99449.56;;;16.78;85.79
62864;BME280;48954;59.950;11.014;2022-08-19T00:16:48;99444.20;;;16.76;85.69
62864;BME280;48954;59.950;11.014;2022-08-19T00:19:15;99446.13;;;16.74;85.66
62864;BME280;48954;59.950;11.014;2022-08-19T00:21:42;99439.40;;;16.71;85.66
62864;BME280;48954;59.950;11.014;2022-08-19T00:24:12;99442.50;;;16.69;85.72
62864;BME280;48954;59.950;11.014;2022-08-19T00:26:39;99447.27;;;16.67;85.72
62864;BME280;48954;59.950;11.014;2022-08-19T00:29:09;99450.06;;;16.64;85.63
62864;BME280;48954;59.950;11.014;2022-08-19T00:31:36;99444.84;;;16.62;85.67
62864;BME280;48954;59.950;11.014;2022-08-19T00:34:03;99450.23;;;16.62;85.68
62864;BME280;48954;59.950;11.014;2022-08-19T00:36:30;99451.91;;;16.61;85.52
62864;BME280;48954;59.950;11.014;2022-08-19T00:38:56;99453.42;;;16.59;85.55
62864;BME280;48954;59.950;11.014;2022-08-19T00:41:23;99461.36;;;16.58;85.48
62864;BME280;48954;59.950;11.014;2022-08-19T00:44:08;99465.57;;;16.56;85.40
62864;BME280;48954;59.950;11.014;2022-08-19T00:46:38;99463.44;;;16.54;85.45
62864;BME280;48954;59.950;11.014;2022-08-19T00:49:14;99460.44;;;16.51;85.42
62864;BME280;48954;59.950;11.014;2022-08-19T00:51:44;99461.48;;;16.47;85.44
62864;BME280;48954;59.950;11.014;2022-08-19T00:54:11;99465.95;;;16.47;85.41
62864;BME280;48954;59.950;11.014;2022-08-19T00:56:39;99469.20;;;16.46;85.47
62864;BME280;48954;59.950;11.014;2022-08-19T00:59:06;99466.27;;;16.46;85.60
62864;BME280;48954;59.950;11.014;2022-08-19T01:01:32;99461.20;;;16.45;85.56
62864;BME280;48954;59.950;11.014;2022-08-19T01:03:59;99458.68;;;16.42;85.59
62864;BME280;48954;59.950;11.014;2022-08-19T01:06:27;99456.21;;;16.43;85.63
62864;BME280;48954;59.950;11.014;2022-08-19T01:08:54;99460.89;;;16.43;85.61
62864;BME280;48954;59.950;11.014;2022-08-19T01:11:21;99461.36;;;16.43;85.63
62864;BME280;48954;59.950;11.014;2022-08-19T01:13:48;99464.14;;;16.43;85.73
62864;BME280;48954;59.950;11.014;2022-08-19T01:16:17;99463.19;;;16.43;85.68
62864;BME280;48954;59.950;11.014;2022-08-19T01:18:45;99459.61;;;16.43;85.76
62864;BME280;48954;59.950;11.014;2022-08-19T01:21:31;99456.69;;;16.43;85.77
62864;BME280;48954;59.950;11.014;2022-08-19T01:23:59;99450.35;;;16.43;85.74
62864;BME280;48954;59.950;11.014;2022-08-19T01:26:26;99451.45;;;16.42;85.79
62864;BME280;48954;59.950;11.014;2022-08-19T01:28:55;99449.16;;;16.41;85.79
62864;BME280;48954;59.950;11.014;2022-08-19T01:31:25;99452.88;;;16.42;85.87
62864;BME280;48954;59.950;11.014;2022-08-19T01:33:54;99452.98;;;16.41;85.81
62864;BME280;48954;59.950;11.014;2022-08-19T01:38:49;99453.84;;;16.41;85.83
62864;BME280;48954;59.950;11.014;2022-08-19T01:41:18;99451.06;;;16.39;85.75
62864;BME280;48954;59.950;11.014;2022-08-19T01:43:44;99447.98;;;16.39;85.83
62864;BME280;48954;59.950;11.014;2022-08-19T01:46:11;99446.72;;;16.38;85.92
62864;BME280;48954;59.950;11.014;2022-08-19T01:48:40;99440.21;;;16.39;85.91
62864;BME280;48954;59.950;11.014;2022-08-19T01:51:07;99438.94;;;16.39;85.88
62864;BME280;48954;59.950;11.014;2022-08-19T01:53:34;99437.43;;;16.40;85.91
62864;BME280;48954;59.950;11.014;2022-08-19T01:56:02;99434.64;;;16.41;85.86
62864;BME280;48954;59.950;11.014;2022-08-19T01:58:35;99434.73;;;16.42;85.91
62864;BME280;48954;59.950;11.014;2022-08-19T02:01:04;99435.13;;;16.42;85.83
62864;BME280;48954;59.950;11.014;2022-08-19T02:03:30;99440.35;;;16.42;85.90
62864;BME280;48954;59.950;11.014;2022-08-19T02:06:01;99445.11;;;16.42;85.86
62864;BME280;48954;59.950;11.014;2022-08-19T02:08:29;99444.15;;;16.43;85.85
62864;BME280;48954;59.950;11.014;2022-08-19T02:10:56;99440.90;;;16.44;85.75
62864;BME280;48954;59.950;11.014;2022-08-19T02:13:24;99448.35;;;16.46;85.75
62864;BME280;48954;59.950;11.014;2022-08-19T02:15:50;99443.12;;;16.45;85.73
62864;BME280;48954;59.950;11.014;2022-08-19T02:18:17;99442.09;;;16.44;85.73
62864;BME280;48954;59.950;11.014;2022-08-19T02:20:44;99448.43;;;16.46;85.73
62864;BME280;48954;59.950;11.014;2022-08-19T02:23:12;99447.23;;;16.47;85.75
62864;BME280;48954;59.950;11.014;2022-08-19T02:25:39;99448.90;;;16.47;85.71
62864;BME280;48954;59.950;11.014;2022-08-19T02:28:06;99450.16;;;16.48;85.71
62864;BME280;48954;59.950;11.014;2022-08-19T02:30:32;99454.21;;;16.47;85.69
62864;BME280;48954;59.950;11.014;2022-08-19T02:32:59;99455.33;;;16.47;85.73
62864;BME280;48954;59.950;11.014;2022-08-19T02:35:25;99449.15;;;16.43;85.64
62864;BME280;48954;59.950;11.014;2022-08-19T02:37:51;99453.81;;;16.47;85.77
62864;BME280;48954;59.950;11.014;2022-08-19T02:40:18;99450.48;;;16.46;85.78
62864;BME280;48954;59.950;11.014;2022-08-19T02:42:45;99453.19;;;16.46;85.80
62864;BME280;48954;59.950;11.014;2022-08-19T02:45:13;99459.85;;;16.47;85.72
62864;BME280;48954;59.950;11.014;2022-08-19T02:47:40;99459.30;;;16.46;85.64
62864;BME280;48954;59.950;11.014;2022-08-19T02:50:07;99461.75;;;16.46;85.70
62864;BME280;48954;59.950;11.014;2022-08-19T02:52:33;99462.31;;;16.45;85.70
62864;BME280;48954;59.950;11.014;2022-08-19T02:55:00;99466.43;;;16.48;85.75
62864;BME280;48954;59.950;11.014;2022-08-19T02:57:32;99468.33;;;16.47;85.67
62864;BME280;48954;59.950;11.014;2022-08-19T02:59:59;99466.58;;;16.48;85.74
62864;BME280;48954;59.950;11.014;2022-08-19T03:02:26;99465.80;;;16.48;85.69
62864;BME280;48954;59.950;11.014;2022-08-19T03:04:52;99466.66;;;16.48;85.72
62864;BME280;48954;59.950;11.014;2022-08-19T03:07:19;99462.54;;;16.48;85.71
62864;BME280;48954;59.950;11.014;2022-08-19T03:09:45;99466.91;;;16.48;85.70
62864;BME280;48954;59.950;11.014;2022-08-19T03:12:11;99468.41;;;16.48;85.68
62864;BME280;48954;59.950;11.014;2022-08-19T03:14:38;99469.84;;;16.47;85.69
62864;BME280;48954;59.950;11.014;2022-08-19T03:17:09;99462.31;;;16.46;85.66
62864;BME280;48954;59.950;11.014;2022-08-19T03:19:35;99471.90;;;16.48;85.73
62864;BME280;48954;59.950;11.014;2022-08-19T03:22:02;99471.50;;;16.47;85.66
62864;BME280;48954;59.950;11.014;2022-08-19T03:24:28;99474.44;;;16.47;85.69
62864;BME280;48954;59.950;11.014;2022-08-19T03:26:55;99474.67;;;16.47;85.66
62864;BME280;48954;59.950;11.014;2022-08-19T03:29:21;99472.29;;;16.48;85.66
62864;BME280;48954;59.950;11.014;2022-08-19T03:31:49;99467.38;;;16.48;85.70
62864;BME280;48954;59.950;11.014;2022-08-19T03:34:19;99475.77;;;16.48;85.70
62864;BME280;48954;59.950;11.014;2022-08-19T03:36:47;99469.58;;;16.48;85.74
62864;BME280;48954;59.950;11.014;2022-08-19T03:39:14;99470.94;;;16.49;85.70
62864;BME280;48954;59.950;11.014;2022-08-19T03:41:42;99467.69;;;16.48;85.59
62864;BME280;48954;59.950;11.014;2022-08-19T03:44:09;99467.77;;;16.48;85.62
62864;BME280;48954;59.950;11.014;2022-08-19T03:46:35;99464.84;;;16.48;85.63
62864;BME280;48954;59.950;11.014;2022-08-19T03:49:04;99461.04;;;16.47;85.69
62864;BME280;48954;59.950;11.014;2022-08-19T03:51:33;99461.43;;;16.47;85.68
62864;BME280;48954;59.950;11.014;2022-08-19T03:54:02;99465.56;;;16.46;85.61
62864;BME280;48954;59.950;11.014;2022-08-19T03:56:29;99464.77;;;16.45;85.60
62864;BME280;48954;59.950;11.014;2022-08-19T03:58:57;99471.98;;;16.45;85.61
62864;BME280;48954;59.950;11.014;2022-08-19T04:01:27;99473.09;;;16.46;85.64
62864;BME280;48954;59.950;11.014;2022-08-19T04:03:55;99473.02;;;16.46;85.69
62864;BME280;48954;59.950;11.014;2022-08-19T04:06:29;99471.98;;;16.45;85.76
62864;BME280;48954;59.950;11.014;2022-08-19T04:08:58;99471.73;;;16.47;85.65
62864;BME280;48954;59.950;11.014;2022-08-19T04:11:34;99469.52;;;16.48;85.69
62864;BME280;48954;59.950;11.014;2022-08-19T04:14:02;99465.55;;;16.48;85.67
62864;BME280;48954;59.950;11.014;2022-08-19T04:16:29;99466.10;;;16.47;85.77
62864;BME280;48954;59.950;11.014;2022-08-19T04:18:56;99462.17;;;16.49;85.64
62864;BME280;48954;59.950;11.014;2022-08-19T04:21:26;99456.87;;;16.50;85.72
62864;BME280;48954;59.950;11.014;2022-08-19T04:23:54;99458.14;;;16.50;85.64
62864;BME280;48954;59.950;11.014;2022-08-19T04:26:24;99460.59;;;16.51;85.65
62864;BME280;48954;59.950;11.014;2022-08-19T04:28:50;99461.64;;;16.51;85.63
62864;BME280;48954;59.950;11.014;2022-08-19T04:31:21;99462.09;;;16.53;85.56
62864;BME280;48954;59.950;11.014;2022-08-19T04:33:48;99472.64;;;16.55;85.60
62864;BME280;48954;59.950;11.014;2022-08-19T04:36:22;99476.27;;;16.56;85.56
62864;BME280;48954;59.950;11.014;2022-08-19T04:38:50;99477.30;;;16.57;85.44
62864;BME280;48954;59.950;11.014;2022-08-19T04:41:18;99476.66;;;16.58;85.49
62864;BME280;48954;59.950;11.014;2022-08-19T04:43:45;99478.09;;;16.60;85.41
62864;BME280;48954;59.950;11.014;2022-08-19T04:46:13;99482.51;;;16.63;85.35
62864;BME280;48954;59.950;11.014;2022-08-19T04:48:39;99481.48;;;16.65;85.42
62864;BME280;48954;59.950;11.014;2022-08-19T04:51:09;99485.20;;;16.68;85.34
62864;BME280;48954;59.950;11.014;2022-08-19T04:53:37;99490.89;;;16.70;85.23
62864;BME280;48954;59.950;11.014;2022-08-19T04:56:12;99495.81;;;16.72;85.30
62864;BME280;48954;59.950;11.014;2022-08-19T04:58:41;99497.71;;;16.72;85.21
62864;BME280;48954;59.950;11.014;2022-08-19T05:01:12;99500.25;;;16.73;85.24
62864;BME280;48954;59.950;11.014;2022-08-19T05:03:39;99505.64;;;16.73;85.29
62864;BME280;48954;59.950;11.014;2022-08-19T05:06:08;99512.55;;;16.71;85.10
62864;BME280;48954;59.950;11.014;2022-08-19T05:08:36;99514.92;;;16.71;85.08
62864;BME280;48954;59.950;11.014;2022-08-19T05:11:12;99515.41;;;16.69;85.03
62864;BME280;48954;59.950;11.014;2022-08-19T05:13:39;99520.73;;;16.67;84.95
62864;BME280;48954;59.950;11.014;2022-08-19T05:16:06;99520.74;;;16.66;84.82
62864;BME280;48954;59.950;11.014;2022-08-19T05:18:41;99515.28;;;16.63;84.83
62864;BME280;48954;59.950;11.014;2022-08-19T05:21:15;99509.02;;;16.62;84.78
62864;BME280;48954;59.950;11.014;2022-08-19T05:23:41;99512.98;;;16.61;84.73
62864;BME280;48954;59.950;11.014;2022-08-19T05:26:10;99512.75;;;16.59;84.71
62864;BME280;48954;59.950;11.014;2022-08-19T05:28:38;99515.38;;;16.58;84.70
62864;BME280;48954;59.950;11.014;2022-08-19T05:31:13;99510.45;;;16.57;84.66
62864;BME280;48954;59.950;11.014;2022-08-19T05:33:43;99510.14;;;16.56;84.61
62864;BME280;48954;59.950;11.014;2022-08-19T05:36:13;99512.21;;;16.55;84.47
62864;BME280;48954;59.950;11.014;2022-08-19T05:38:40;99518.40;;;16.56;84.41
62864;BME280;48954;59.950;11.014;2022-08-19T05:41:11;99513.32;;;16.56;84.42
62864;BME280;48954;59.950;11.014;2022-08-19T05:43:39;99516.48;;;16.56;84.19
62864;BME280;48954;59.950;11.014;2022-08-19T05:46:06;99514.42;;;16.56;84.20
62864;BME280;48954;59.950;11.014;2022-08-19T05:48:34;99516.88;;;16.58;84.27
62864;BME280;48954;59.950;11.014;2022-08-19T05:51:07;99516.73;;;16.59;84.10
62864;BME280;48954;59.950;11.014;2022-08-19T05:53:41;99517.83;;;16.60;83.96
62864;BME280;48954;59.950;11.014;2022-08-19T05:56:12;99511.96;;;16.59;83.70
62864;BME280;48954;59.950;11.014;2022-08-19T05:58:39;99511.73;;;16.58;83.42
62864;BME280;48954;59.950;11.014;2022-08-19T06:01:14;99506.58;;;16.57;83.33
62864;BME280;48954;59.950;11.014;2022-08-19T06:03:41;99506.81;;;16.58;83.26
62864;BME280;48954;59.950;11.014;2022-08-19T06:06:09;99507.67;;;16.60;83.16
62864;BME280;48954;59.950;11.014;2022-08-19T06:08:37;99502.28;;;16.60;82.99
62864;BME280;48954;59.950;11.014;2022-08-19T06:11:18;99501.25;;;16.60;82.74
62864;BME280;48954;59.950;11.014;2022-08-19T06:13:48;99501.48;;;16.61;82.61
62864;BME280;48954;59.950;11.014;2022-08-19T06:16:27;99501.71;;;16.64;82.56
62864;BME280;48954;59.950;11.014;2022-08-19T06:19:15;99504.16;;;16.66;82.35
62864;BME280;48954;59.950;11.014;2022-08-19T06:21:44;99509.96;;;16.65;81.98
62864;BME280;48954;59.950;11.014;2022-08-19T06:24:14;99511.23;;;16.62;81.85
62864;BME280;48954;59.950;11.014;2022-08-19T06:26:44;99509.00;;;16.63;81.76
62864;BME280;48954;59.950;11.014;2022-08-19T06:29:14;99513.77;;;16.64;81.60
62864;BME280;48954;59.950;11.014;2022-08-19T06:31:47;99514.00;;;16.67;81.53
62864;BME280;48954;59.950;11.014;2022-08-19T06:34:14;99512.63;;;16.71;81.33
62864;BME280;48954;59.950;11.014;2022-08-19T06:36:45;99512.86;;;16.73;81.15
62864;BME280;48954;59.950;11.014;2022-08-19T06:39:26;99520.04;;;16.76;81.13
62864;BME280;48954;59.950;11.014;2022-08-19T06:41:58;99517.37;;;16.87;81.07
62864;BME280;48954;59.950;11.014;2022-08-19T06:44:28;99516.36;;;16.95;80.63
62864;BME280;48954;59.950;11.014;2022-08-19T06:46:56;99519.52;;;17.05;80.48
62864;BME280;48954;59.950;11.014;2022-08-19T06:49:23;99519.49;;;17.11;80.35
62864;BME280;48954;59.950;11.014;2022-08-19T06:51:50;99516.34;;;17.16;80.04
62864;BME280;48954;59.950;11.014;2022-08-19T06:54:18;99518.05;;;17.24;79.77
62864;BME280;48954;59.950;11.014;2022-08-19T06:56:46;99519.00;;;17.39;79.27
62864;BME280;48954;59.950;11.014;2022-08-19T06:59:21;99514.51;;;17.46;78.98
62864;BME280;48954;59.950;11.014;2022-08-19T07:01:55;99510.99;;;17.55;78.83
62864;BME280;48954;59.950;11.014;2022-08-19T07:04:36;99515.95;;;17.61;78.06
62864;BME280;48954;59.950;11.014;2022-08-19T07:07:13;99525.66;;;17.58;77.74
62864;BME280;48954;59.950;11.014;2022-08-19T07:09:54;99527.67;;;17.56;77.83
62864;BME280;48954;59.950;11.014;2022-08-19T07:12:34;99529.05;;;17.52;77.68
62864;BME280;48954;59.950;11.014;2022-08-19T07:15:15;99540.67;;;17.60;77.35
62864;BME280;48954;59.950;11.014;2022-08-19T07:17:43;99540.90;;;17.63;77.19
62864;BME280;48954;59.950;11.014;2022-08-19T07:20:10;99542.94;;;17.67;76.86
62864;BME280;48954;59.950;11.014;2022-08-19T07:22:38;99549.70;;;17.73;76.21
62864;BME280;48954;59.950;11.014;2022-08-19T07:25:07;99549.45;;;17.76;75.77
62864;BME280;48954;59.950;11.014;2022-08-19T07:27:36;99556.14;;;17.81;75.83
62864;BME280;48954;59.950;11.014;2022-08-19T07:30:03;99561.09;;;17.88;75.24
62864;BME280;48954;59.950;11.014;2022-08-19T07:32:31;99560.95;;;17.93;75.24
62864;BME280;48954;59.950;11.014;2022-08-19T07:34:58;99551.60;;;18.05;75.56
62864;BME280;48954;59.950;11.014;2022-08-19T07:37:26;99548.99;;;18.17;75.09
62864;BME280;48954;59.950;11.014;2022-08-19T07:39:52;99554.58;;;18.28;75.04
62864;BME280;48954;59.950;11.014;2022-08-19T07:42:19;99558.17;;;18.35;74.66
62864;BME280;48954;59.950;11.014;2022-08-19T07:44:46;99558.02;;;18.33;73.91
62864;BME280;48954;59.950;11.014;2022-08-19T07:47:13;99560.96;;;18.33;74.01
62864;BME280;48954;59.950;11.014;2022-08-19T07:49:40;99550.34;;;18.38;74.28
62864;BME280;48954;59.950;11.014;2022-08-19T07:52:10;99555.06;;;18.54;74.35
62864;BME280;48954;59.950;11.014;2022-08-19T07:54:42;99558.13;;;18.66;73.73
62864;BME280;48954;59.950;11.014;2022-08-19T07:57:09;99562.55;;;18.73;73.50
62864;BME280;48954;59.950;11.014;2022-08-19T07:59:38;99565.70;;;18.76;73.12
62864;BME280;48954;59.950;11.014;2022-08-19T08:02:18;99574.80;;;18.80;73.40
62864;BME280;48954;59.950;11.014;2022-08-19T08:04:46;99577.69;;;18.84;73.28
62864;BME280;48954;59.950;11.014;2022-08-19T08:07:24;99581.20;;;18.95;73.05
62864;BME280;48954;59.950;11.014;2022-08-19T08:09:52;99580.36;;;19.08;72.47
62864;BME280;48954;59.950;11.014;2022-08-19T08:12:37;99579.98;;;19.18;71.64
62864;BME280;48954;59.950;11.014;2022-08-19T08:15:09;99584.48;;;19.31;71.40
62864;BME280;48954;59.950;11.014;2022-08-19T08:17:43;99583.02;;;19.42;70.95
62864;BME280;48954;59.950;11.014;2022-08-19T08:20:13;99578.21;;;19.55;70.85
62864;BME280;48954;59.950;11.014;2022-08-19T08:22:44;99575.80;;;19.65;70.45
62864;BME280;48954;59.950;11.014;2022-08-19T08:25:15;99571.59;;;19.65;69.71
62864;BME280;48954;59.950;11.014;2022-08-19T08:27:44;99575.18;;;19.65;70.36
62864;BME280;48954;59.950;11.014;2022-08-19T08:30:23;99575.86;;;19.67;70.49
62864;BME280;48954;59.950;11.014;2022-08-19T08:33:03;99578.16;;;19.69;70.46
62864;BME280;48954;59.950;11.014;2022-08-19T08:35:32;99581.95;;;19.70;70.53
62864;BME280;48954;59.950;11.014;2022-08-19T08:38:02;99581.95;;;19.71;69.99
62864;BME280;48954;59.950;11.014;2022-08-19T08:43:24;99581.49;;;19.64;68.82
62864;BME280;48954;59.950;11.014;2022-08-19T08:46:16;99578.16;;;19.62;69.00
62864;BME280;48954;59.950;11.014;2022-08-19T08:49:02;99585.98;;;19.62;69.00
62864;BME280;48954;59.950;11.014;2022-08-19T08:51:40;99581.44;;;19.68;69.28
62864;BME280;48954;59.950;11.014;2022-08-19T08:54:11;99585.42;;;19.86;69.37
62864;BME280;48954;59.950;11.014;2022-08-19T08:56:41;99588.89;;;20.10;69.31
62864;BME280;48954;59.950;11.014;2022-08-19T08:59:28;99587.79;;;20.29;68.60
62864;BME280;48954;59.950;11.014;2022-08-19T09:01:57;99588.91;;;20.47;68.42
62864;BME280;48954;59.950;11.014;2022-08-19T09:04:26;99592.70;;;20.60;68.09
62864;BME280;48954;59.950;11.014;2022-08-19T09:09:50;99596.10;;;20.91;67.07
62864;BME280;48954;59.950;11.014;2022-08-19T09:15:28;99599.73;;;21.04;66.10
62864;BME280;48954;59.950;11.014;2022-08-19T09:18:13;99606.36;;;21.07;66.39
62864;BME280;48954;59.950;11.014;2022-08-19T09:20:42;99604.50;;;21.09;65.13
62864;BME280;48954;59.950;11.014;2022-08-19T09:23:09;99602.64;;;21.09;64.87
62864;BME280;48954;59.950;11.014;2022-08-19T09:25:49;99604.98;;;21.12;64.90
62864;BME280;48954;59.950;11.014;2022-08-19T09:28:19;99602.30;;;21.22;64.38
62864;BME280;48954;59.950;11.014;2022-08-19T09:30:51;99597.50;;;21.36;65.36
62864;BME280;48954;59.950;11.014;2022-08-19T09:33:20;99593.94;;;21.51;65.29
62864;BME280;48954;59.950;11.014;2022-08-19T09:35:48;99592.94;;;21.62;64.41
62864;BME280;48954;59.950;11.014;2022-08-19T09:38:15;99592.38;;;21.75;64.82
62864;BME280;48954;59.950;11.014;2022-08-19T09:40:42;99597.01;;;21.91;65.12
62864;BME280;48954;59.950;11.014;2022-08-19T09:43:09;99595.13;;;22.02;64.91
62864;BME280;48954;59.950;11.014;2022-08-19T09:45:37;99590.85;;;22.09;64.46
62864;BME280;48954;59.950;11.014;2022-08-19T09:48:06;99586.18;;;22.17;64.00
62864;BME280;48954;59.950;11.014;2022-08-19T09:50:35;99586.43;;;22.17;62.60
62864;BME280;48954;59.950;11.014;2022-08-19T09:53:06;99592.59;;;22.10;62.18
62864;BME280;48954;59.950;11.014;2022-08-19T09:55:33;99589.84;;;22.20;62.28
62864;BME280;48954;59.950;11.014;2022-08-19T09:58:01;99585.91;;;22.30;61.65
62864;BME280;48954;59.950;11.014;2022-08-19T10:00:29;99585.08;;;22.41;62.07
62864;BME280;48954;59.950;11.014;2022-08-19T10:02:58;99582.96;;;22.56;62.06
62864;BME280;48954;59.950;11.014;2022-08-19T10:05:27;99580.70;;;22.68;62.02
62864;BME280;48954;59.950;11.014;2022-08-19T10:07:57;99579.89;;;22.82;61.81
62864;BME280;48954;59.950;11.014;2022-08-19T10:10:24;99584.79;;;22.93;61.23
62864;BME280;48954;59.950;11.014;2022-08-19T10:12:51;99579.18;;;22.98;61.47
62864;BME280;48954;59.950;11.014;2022-08-19T10:15:19;99580.22;;;23.06;61.76
62864;BME280;48954;59.950;11.014;2022-08-19T10:17:46;99577.66;;;23.11;61.68
62864;BME280;48954;59.950;11.014;2022-08-19T10:20:13;99578.27;;;23.22;62.15
62864;BME280;48954;59.950;11.014;2022-08-19T10:22:47;99571.84;;;23.33;62.06
62864;BME280;48954;59.950;11.014;2022-08-19T10:25:18;99565.98;;;23.42;61.39
62864;BME280;48954;59.950;11.014;2022-08-19T10:27:45;99567.27;;;23.50;61.15
62864;BME280;48954;59.950;11.014;2022-08-19T10:30:12;99565.73;;;23.56;61.26
62864;BME280;48954;59.950;11.014;2022-08-19T10:32:41;99564.63;;;23.65;61.09
62864;BME280;48954;59.950;11.014;2022-08-19T10:35:12;99568.04;;;23.75;61.22
62864;BME280;48954;59.950;11.014;2022-08-19T10:37:42;99560.74;;;23.82;60.47
62864;BME280;48954;59.950;11.014;2022-08-19T10:40:09;99567.57;;;23.84;59.77
62864;BME280;48954;59.950;11.014;2022-08-19T10:42:36;99556.14;;;23.80;59.37
62864;BME280;48954;59.950;11.014;2022-08-19T10:45:07;99555.37;;;23.84;59.16
62864;BME280;48954;59.950;11.014;2022-08-19T10:47:35;99559.97;;;23.93;59.78
62864;BME280;48954;59.950;11.014;2022-08-19T10:50:03;99560.14;;;24.02;59.67
62864;BME280;48954;59.950;11.014;2022-08-19T10:52:30;99555.56;;;23.99;59.26
62864;BME280;48954;59.950;11.014;2022-08-19T10:54:58;99550.47;;;23.96;59.15
62864;BME280;48954;59.950;11.014;2022-08-19T10:57:33;99545.33;;;23.89;59.14
62864;BME280;48954;59.950;11.014;2022-08-19T11:00:02;99545.20;;;23.79;59.18
62864;BME280;48954;59.950;11.014;2022-08-19T11:02:32;99551.14;;;23.72;59.32
62864;BME280;48954;59.950;11.014;2022-08-19T11:05:01;99550.73;;;23.67;59.24
62864;BME280;48954;59.950;11.014;2022-08-19T11:07:43;99550.52;;;23.62;59.23
62864;BME280;48954;59.950;11.014;2022-08-19T11:10:20;99551.52;;;23.62;59.35
62864;BME280;48954;59.950;11.014;2022-08-19T11:12:47;99550.59;;;23.64;59.56
62864;BME280;48954;59.950;11.014;2022-08-19T11:15:15;99544.92;;;23.66;59.32
62864;BME280;48954;59.950;11.014;2022-08-19T11:17:44;99542.31;;;23.67;59.44
62864;BME280;48954;59.950;11.014;2022-08-19T11:20:12;99545.81;;;23.71;59.46
62864;BME280;48954;59.950;11.014;2022-08-19T11:22:54;99551.79;;;23.72;59.38
62864;BME280;48954;59.950;11.014;2022-08-19T11:25:20;99549.92;;;23.75;59.38
62864;BME280;48954;59.950;11.014;2022-08-19T11:27:47;99549.92;;;23.79;59.36
62864;BME280;48954;59.950;11.014;2022-08-19T11:30:17;99546.03;;;23.87;59.42
62864;BME280;48954;59.950;11.014;2022-08-19T11:32:45;99548.56;;;24.13;58.80
62864;BME280;48954;59.950;11.014;2022-08-19T11:35:13;99545.34;;;24.51;58.52
62864;BME280;48954;59.950;11.014;2022-08-19T11:37:41;99540.08;;;24.43;58.53
62864;BME280;48954;59.950;11.014;2022-08-19T11:40:10;99539.07;;;24.40;58.78
62864;BME280;48954;59.950;11.014;2022-08-19T11:42:36;99542.17;;;24.37;58.31
62864;BME280;48954;59.950;11.014;2022-08-19T11:45:03;99535.85;;;24.36;58.32
62864;BME280;48954;59.950;11.014;2022-08-19T11:47:30;99534.77;;;24.29;58.18
62864;BME280;48954;59.950;11.014;2022-08-19T11:49:58;99537.04;;;24.18;57.99
62864;BME280;48954;59.950;11.014;2022-08-19T11:52:25;99535.15;;;24.13;58.06
62864;BME280;48954;59.950;11.014;2022-08-19T11:54:52;99534.61;;;24.10;57.82
62864;BME280;48954;59.950;11.014;2022-08-19T11:57:18;99533.84;;;24.20;57.61
62864;BME280;48954;59.950;11.014;2022-08-19T11:59:50;99528.80;;;24.28;57.74
62864;BME280;48954;59.950;11.014;2022-08-19T12:02:27;99532.55;;;24.43;57.35
62864;BME280;48954;59.950;11.014;2022-08-19T12:05:10;99538.70;;;24.46;56.99
62864;BME280;48954;59.950;11.014;2022-08-19T12:07:51;99533.37;;;24.47;57.21
62864;BME280;48954;59.950;11.014;2022-08-19T12:10:29;99532.07;;;24.49;57.01
62864;BME280;48954;59.950;11.014;2022-08-19T12:12:57;99531.63;;;24.40;56.62
62864;BME280;48954;59.950;11.014;2022-08-19T12:15:39;99528.68;;;24.28;56.44
62864;BME280;48954;59.950;11.014;2022-08-19T12:18:20;99528.53;;;24.20;56.72
62864;BME280;48954;59.950;11.014;2022-08-19T12:20:55;99528.52;;;24.31;56.55
62864;BME280;48954;59.950;11.014;2022-08-19T12:23:36;99531.45;;;24.42;56.44
62864;BME280;48954;59.950;11.014;2022-08-19T12:26:04;99538.21;;;24.35;56.01
62864;BME280;48954;59.950;11.014;2022-08-19T12:28:51;99538.55;;;24.19;55.21
62864;BME280;48954;59.950;11.014;2022-08-19T12:31:22;99536.30;;;24.10;55.41
62864;BME280;48954;59.950;11.014;2022-08-19T12:34:03;99532.29;;;24.06;55.29
62864;BME280;48954;59.950;11.014;2022-08-19T12:36:44;99531.21;;;23.98;54.40
62864;BME280;48954;59.950;11.014;2022-08-19T12:39:44;99531.64;;;23.91;53.62
62864;BME280;48954;59.950;11.014;2022-08-19T12:42:16;99534.99;;;23.81;53.66
62864;BME280;48954;59.950;11.014;2022-08-19T12:44:45;99538.21;;;23.72;53.26
62864;BME280;48954;59.950;11.014;2022-08-19T12:47:12;99536.67;;;23.63;53.88
62864;BME280;48954;59.950;11.014;2022-08-19T12:49:41;99538.77;;;23.56;53.24
62864;BME280;48954;59.950;11.014;2022-08-19T12:52:16;99533.27;;;23.45;53.72
62864;BME280;48954;59.950;11.014;2022-08-19T12:54:43;99524.42;;;23.36;53.40
62864;BME280;48954;59.950;11.014;2022-08-19T12:57:10;99522.30;;;23.25;53.09
62864;BME280;48954;59.950;11.014;2022-08-19T12:59:38;99523.86;;;23.22;53.23
62864;BME280;48954;59.950;11.014;2022-08-19T13:02:07;99528.27;;;23.22;53.23
62864;BME280;48954;59.950;11.014;2022-08-19T13:04:35;99529.77;;;23.20;53.16
62864;BME280;48954;59.950;11.014;2022-08-19T13:07:04;99528.76;;;23.19;53.39
62864;BME280;48954;59.950;11.014;2022-08-19T13:09:30;99523.60;;;23.17;53.46
62864;BME280;48954;59.950;11.014;2022-08-19T13:11:57;99526.67;;;23.13;53.34
62864;BME280;48954;59.950;11.014;2022-08-19T13:14:25;99530.56;;;23.12;53.69
62864;BME280;48954;59.950;11.014;2022-08-19T13:16:52;99522.20;;;23.08;53.55